Skip Navigation Links
NOAA logo - Click to go to the NOAA homepage
NOAA's National Weather Service
Alaska Aviation Weather Unit
  NWS logo - Click to go to the NWS homepage
Left Navbar Graphic     08 AKDT = 16 GMT

   
NOAA is celebrating 200 years of science, service, and stewardship. Visit the NOAA 200th celebration Web site to learn more.
USA.gov is the U.S. Government's official Web portal to all Federal, state and local government Web resources and services.
Facebook
NWS on Facebook

Important Change Regarding the AAWU Web Presence

 

Over the last several months, the AAWU has been working to navigate its webpages to a nationally supported server. Security, as well as other needs, have necessitated the change.  In the process, we have made an effort to enhance the functionality of our website, as well as some of our products. As of June 20, 2017, aawu.arh.noaa.gov will be discontinued. The new AAWU web address is weather.gov/aawu. It is now live and will run in-parallel with the old site until it is discontinued. Please send any feedback or questions regarding the new webpages to nws.ar.aawu.webauthors@noaa.gov.  Thank you for your patience during this time of transition.
AAWU Home :: Display TAF Add Bookmark
METAR PAKH 231156Z AUTO 29003KT CLR 05/01 A3018 RMK AO2 SLP220 70018
 T00500011 10067 20039 51012 PWINO $=

SPECI PAKH 231323Z AUTO 00000KT BKN023 BKN047 04/02 A3018 RMK AO2
 PWINO $=

METAR PAKH 231356Z AUTO 25004KT SCT016 BKN022 OVC090 06/03 A3018 RMK
 AO2 SLP222 T00560028 PWINO $=

METAR PAKH 231456Z AUTO 00000KT SCT016 BKN050 OVC080 06/04 A3018 RMK
 AO2 SLP220 T00610044 58000 PWINO $=

SPECI PAKH 231533Z AUTO 18003KT BKN012 OVC080 07/05 A3019 RMK AO2
 PWINO $=

METAR PAKH 231556Z AUTO 23011KT OVC014 07/05 A3018 RMK AO2 SLP222
 T00720050 PWINO $=

METAR PAKH 231656Z AUTO 23013G19KT BKN012 OVC065 07/04 A3018 RMK AO2
 SLP221 T00720044 PWINO $=


NOAA's National Weather Service
Alaska Aviation Weather Unit
6930 Sand Lake Road
Anchorage, AK 99502-1845
Disclaimer
Credits
Glossary
Privacy Policy
About Us
Career Opportunities
Contact AAWU Internet Services Site last modified: April, 17th 2012